KSPI

Abraham Lincoln Capital Airport

Springfield, Illinois, USA
METAR KSPI 190852Z AUTO 06004KT 10SM CLR 21/20 A2994 RMK AO2 SLP132 T02060200 50000
Observed Flight Rules
Sep-19 @ 08:52 UTC (13 minutes ago) Visual Flight Rules
Wind Visibility Clouds
60° at 4 knots 10 miles
  • Clear skies
Temperatures Readings
Current 21°C / 70°F
Dewpoint 20°C / 68°F
Humidity 94%
Altimeter 29.94" Hg
Pressure 1013.2 hPa
Elevation 181
METAR KSPI 190852Z AUTO 06004KT 10SM CLR 21/20 A2994 RMK AO2 SLP132 T02060200 50000
Observed Flight Rules
Sep-19 @ 08:52 UTC
(13 minutes ago)
VFR
Wind Visibility
60° at 4 knots 10 miles
Clouds
  • Clear skies
Temperature Dewpoint
21°C / 70°F 20°C / 68°F
Humidity Altimeter Pressure
94% 29.94" Hg 1013.2 hPa